createdAt,value
2022-10-03T00:01:15.603Z,101837.44
2022-10-03T00:03:54.335Z,101845.25
2022-10-03T00:06:33.385Z,101845.34
2022-10-03T00:09:22.765Z,101856.91
2022-10-03T00:12:04.652Z,101857.22
2022-10-03T00:14:43.078Z,101864.47
2022-10-03T00:17:19.668Z,101857.03
2022-10-03T00:19:59.985Z,101857.75
2022-10-03T00:22:38.323Z,101858.53
2022-10-03T00:25:31.325Z,101862.00
2022-10-03T00:28:14.953Z,101862.66
2022-10-03T00:30:54.206Z,101862.53
2022-10-03T00:33:34.781Z,101859.59
2022-10-03T00:36:10.566Z,101861.19
2022-10-03T00:39:10.965Z,101864.53
2022-10-03T00:42:04.875Z,101875.66
2022-10-03T00:45:10.504Z,101868.44
2022-10-03T00:48:08.198Z,101874.72
2022-10-03T00:50:55.136Z,101864.78
2022-10-03T00:53:38.867Z,101870.34
2022-10-03T00:56:34.192Z,101869.78
2022-10-03T00:59:19.250Z,101861.28
2022-10-03T01:01:50.327Z,101876.88
2022-10-03T01:04:40.674Z,101873.81
2022-10-03T01:07:26.119Z,101876.53
2022-10-03T01:10:12.233Z,101881.16
2022-10-03T01:13:13.958Z,101887.09
2022-10-03T01:15:53.037Z,101881.88
2022-10-03T01:18:32.799Z,101887.88
2022-10-03T01:21:12.353Z,101886.19
2022-10-03T01:24:22.613Z,101884.31
2022-10-03T01:26:57.135Z,101890.56
2022-10-03T01:30:08.464Z,101885.53
2022-10-03T01:32:44.774Z,101885.84
2022-10-03T01:35:24.189Z,101888.47
2022-10-03T01:38:03.062Z,101894.00
2022-10-03T01:40:38.128Z,101895.78
2022-10-03T01:43:15.528Z,101900.59
2022-10-03T01:45:56.984Z,101905.38
2022-10-03T01:48:34.990Z,101903.56
2022-10-03T01:51:11.734Z,101906.75
2022-10-03T01:53:50.163Z,101905.75
2022-10-03T01:56:28.366Z,101912.84
2022-10-03T01:59:06.800Z,101911.56
2022-10-03T02:01:47.610Z,101921.41
2022-10-03T02:04:29.750Z,101923.09
2022-10-03T02:07:08.859Z,101919.50
2022-10-03T02:09:49.327Z,101920.84
2022-10-03T02:12:28.961Z,101918.97
2022-10-03T02:15:07.946Z,101931.13
2022-10-03T02:17:54.314Z,101931.13
2022-10-03T02:20:35.504Z,101918.03
2022-10-03T02:23:22.907Z,101931.97
2022-10-03T02:26:04.400Z,101931.97
2022-10-03T02:29:11.669Z,101940.47
2022-10-03T02:32:11.183Z,101942.38
2022-10-03T02:35:11.145Z,101941.91
2022-10-03T02:38:08.739Z,101947.72
2022-10-03T02:40:58.526Z,101950.78
2022-10-03T02:43:54.324Z,101953.53
2022-10-03T02:46:59.215Z,101954.19
2022-10-03T02:50:10.599Z,101950.91
2022-10-03T02:53:20.893Z,101958.28
2022-10-03T02:56:14.693Z,101954.19
2022-10-03T02:59:10.828Z,101966.44
2022-10-03T03:02:17.540Z,101965.97
2022-10-03T03:05:19.223Z,101971.13
2022-10-03T03:08:24.326Z,101971.50
2022-10-03T03:11:38.253Z,101972.44
2022-10-03T03:14:45.486Z,101972.16
2022-10-03T03:17:30.898Z,101965.13
2022-10-03T03:20:23.722Z,101972.78
2022-10-03T03:23:10.026Z,101975.53
2022-10-03T03:26:25.142Z,101974.59
2022-10-03T03:29:05.253Z,101980.66
2022-10-03T03:31:45.907Z,101981.31
2022-10-03T03:34:23.943Z,101973.28
2022-10-03T03:36:59.369Z,101985.72
2022-10-03T03:39:58.334Z,101977.00
2022-10-03T03:42:55.397Z,101978.59
2022-10-03T03:45:46.465Z,101989.19
2022-10-03T03:48:41.084Z,101987.69
2022-10-03T03:51:23.489Z,101989.34
2022-10-03T03:54:22.296Z,101990.47
2022-10-03T03:57:11.914Z,101988.25
2022-10-03T03:59:59.105Z,101987.78
2022-10-03T04:02:52.870Z,101988.78
2022-10-03T04:05:34.925Z,101988.25
2022-10-03T04:08:25.930Z,101993.34
2022-10-03T04:11:11.856Z,101999.31
2022-10-03T04:14:19.727Z,102008.19
2022-10-03T04:17:29.879Z,102012.00
2022-10-03T04:20:14.288Z,102012.19
2022-10-03T04:23:01.119Z,102018.94
2022-10-03T04:25:52.792Z,102017.34
2022-10-03T04:28:43.153Z,102019.13
2022-10-03T04:31:27.680Z,102022.41
2022-10-03T04:34:13.641Z,102013.22
2022-10-03T04:37:16.425Z,102014.16
2022-10-03T04:39:54.700Z,102008.53
2022-10-03T04:42:41.046Z,102013.88
2022-10-03T04:45:28.712Z,102010.59
2022-10-03T04:48:07.180Z,102019.63
2022-10-03T04:50:45.997Z,102019.84
2022-10-03T04:53:28.906Z,102019.97
2022-10-03T04:56:12.759Z,102016.78
2022-10-03T04:58:50.870Z,102019.25
2022-10-03T05:01:26.569Z,102023.31
2022-10-03T05:04:04.934Z,102023.94
2022-10-03T05:06:48.514Z,102024.34
2022-10-03T05:09:32.524Z,102029.84
2022-10-03T05:12:14.881Z,102026.41
2022-10-03T05:14:58.496Z,102032.28
2022-10-03T05:17:39.359Z,102040.97
2022-10-03T05:20:39.863Z,102032.06
2022-10-03T05:23:23.726Z,102043.44
2022-10-03T05:26:17.683Z,102044.06
2022-10-03T05:29:03.695Z,102043.78
2022-10-03T05:31:45.709Z,102051.91
2022-10-03T05:34:24.989Z,102058.25
2022-10-03T05:37:16.533Z,102051.50
2022-10-03T05:39:57.302Z,102058.19
2022-10-03T05:42:42.137Z,102062.94
2022-10-03T05:45:28.692Z,102074.13
2022-10-03T05:48:15.335Z,102062.75
2022-10-03T05:51:13.334Z,102070.41
2022-10-03T05:54:21.123Z,102069.97
2022-10-03T05:57:18.934Z,102080.09
2022-10-03T06:00:06.176Z,102078.88
2022-10-03T06:03:06.828Z,102074.63
2022-10-03T06:05:56.136Z,102077.56
2022-10-03T06:09:05.076Z,102074.09
2022-10-03T06:11:59.986Z,102068.47
2022-10-03T06:14:35.836Z,102077.28
2022-10-03T06:17:27.987Z,102071.31
2022-10-03T06:20:11.737Z,102070.09
2022-10-03T06:23:14.374Z,102075.22
2022-10-03T06:26:28.838Z,102077.09
2022-10-03T06:29:36.739Z,102071.50
2022-10-03T06:32:28.197Z,102080.19
2022-10-03T06:35:41.123Z,102095.94
2022-10-03T06:38:37.414Z,102106.09
2022-10-03T06:41:42.931Z,102104.16
2022-10-03T06:44:42.028Z,102101.81
2022-10-03T06:47:36.656Z,102108.00
2022-10-03T06:50:39.829Z,102110.59
2022-10-03T06:53:24.700Z,102117.88
2022-10-03T06:56:31.823Z,102107.66
2022-10-03T06:59:39.340Z,102105.47
2022-10-03T07:02:35.444Z,102110.13
2022-10-03T07:05:53.558Z,102108.34
2022-10-03T07:08:53.305Z,102122.97
2022-10-03T07:12:08.627Z,102111.38
2022-10-03T07:15:08.582Z,102114.31
2022-10-03T07:17:54.602Z,102112.69
2022-10-03T07:20:56.953Z,102120.09
2022-10-03T07:23:49.525Z,102116.66
2022-10-03T07:26:58.198Z,102117.09
2022-10-03T07:29:54.756Z,102114.38
2022-10-03T07:32:58.312Z,102136.41
2022-10-03T07:36:04.108Z,102127.81
2022-10-03T07:39:00.978Z,102133.47
2022-10-03T07:42:06.117Z,102134.66
2022-10-03T07:45:22.981Z,102147.91
2022-10-03T07:48:24.287Z,102143.69
2022-10-03T07:51:08.797Z,102138.28
2022-10-03T07:54:19.917Z,102135.28
2022-10-03T07:57:13.830Z,102148.53
2022-10-03T08:00:09.220Z,102141.59
2022-10-03T08:03:14.417Z,102144.66
2022-10-03T08:06:17.230Z,102144.84
2022-10-03T08:09:12.652Z,102147.13
2022-10-03T08:12:34.609Z,102142.69
2022-10-03T08:15:11.030Z,102142.78
2022-10-03T08:18:21.175Z,102145.13
2022-10-03T08:20:55.213Z,102144.03
2022-10-03T08:24:08.475Z,102159.53
2022-10-03T08:27:04.372Z,102141.97
2022-10-03T08:30:05.253Z,102150.63
2022-10-03T08:33:01.260Z,102149.66
2022-10-03T08:36:03.460Z,102145.13
2022-10-03T08:39:01.417Z,102143.44
2022-10-03T08:42:19.522Z,102143.91
2022-10-03T08:45:25.593Z,102155.19
2022-10-03T08:48:26.067Z,102153.38
2022-10-03T08:51:06.160Z,102154.56
2022-10-03T08:54:08.411Z,102156.72
2022-10-03T08:56:58.198Z,102151.94
2022-10-03T09:00:16.529Z,102148.16
2022-10-03T09:03:39.294Z,102151.09
2022-10-03T09:07:05.049Z,102156.13
2022-10-03T09:10:17.332Z,102153.72
2022-10-03T09:13:23.058Z,102158.13
2022-10-03T09:16:27.761Z,102164.53
2022-10-03T09:19:18.171Z,102165.72
2022-10-03T09:22:23.175Z,102162.03
2022-10-03T09:25:21.134Z,102165.03
2022-10-03T09:28:35.253Z,102172.34
2022-10-03T09:31:29.573Z,102165.81
2022-10-03T09:34:29.839Z,102165.88
2022-10-03T09:37:24.349Z,102168.78
2022-10-03T09:40:53.654Z,102168.06
2022-10-03T09:44:03.188Z,102153.31
2022-10-03T09:47:08.187Z,102169.56
2022-10-03T09:50:02.113Z,102167.97
2022-10-03T09:52:48.630Z,102156.13
2022-10-03T09:55:47.279Z,102169.94
2022-10-03T09:58:46.241Z,102161.06
2022-10-03T10:01:30.639Z,102156.09
2022-10-03T10:04:52.991Z,102164.78
2022-10-03T10:08:06.146Z,102169.09
2022-10-03T10:11:12.171Z,102162.22
2022-10-03T10:14:30.656Z,102158.28
2022-10-03T10:17:40.544Z,102151.97
2022-10-03T10:20:25.042Z,102151.28
2022-10-03T10:23:20.579Z,102143.75
2022-10-03T10:26:27.458Z,102151.31
2022-10-03T10:29:19.244Z,102144.25
2022-10-03T10:32:27.406Z,102150.53
2022-10-03T10:35:47.563Z,102145.63
2022-10-03T10:38:28.776Z,102156.91
2022-10-03T10:41:50.642Z,102149.03
2022-10-03T10:44:53.887Z,102147.13
2022-10-03T10:48:16.844Z,102142.75
2022-10-03T10:51:23.382Z,102139.31
2022-10-03T10:54:27.004Z,102122.00
2022-10-03T10:57:44.368Z,102135.50
2022-10-03T11:00:34.900Z,102147.88
2022-10-03T11:03:52.654Z,102140.38
2022-10-03T11:07:12.557Z,102125.91
2022-10-03T11:09:53.589Z,102132.84
2022-10-03T11:13:04.518Z,102142.66
2022-10-03T11:16:09.408Z,102148.66
2022-10-03T11:19:21.218Z,102148.22
2022-10-03T11:22:43.477Z,102153.84
2022-10-03T11:25:44.285Z,102157.34
2022-10-03T11:28:55.080Z,102163.03
2022-10-03T11:32:08.172Z,102160.09
2022-10-03T11:35:20.763Z,102160.06
2022-10-03T11:37:56.621Z,102152.88
2022-10-03T11:40:36.898Z,102152.53
2022-10-03T11:43:48.778Z,102155.72
2022-10-03T11:46:29.261Z,102157.78
2022-10-03T11:49:02.794Z,102149.31
2022-10-03T11:51:44.918Z,102159.38
2022-10-03T11:54:31.681Z,102150.28
2022-10-03T11:57:09.305Z,102156.06
2022-10-03T11:59:52.953Z,102149.72
2022-10-03T12:02:43.168Z,102143.94
2022-10-03T12:05:23.299Z,102145.47
2022-10-03T12:08:26.697Z,102145.94
2022-10-03T12:11:06.952Z,102154.34
2022-10-03T12:13:42.424Z,102165.66
2022-10-03T12:16:20.891Z,102158.59
2022-10-03T12:18:59.807Z,102155.66
2022-10-03T12:21:43.529Z,102150.94
2022-10-03T12:24:30.286Z,102148.19
2022-10-03T12:27:06.165Z,102147.59
2022-10-03T12:29:38.983Z,102152.09
2022-10-03T12:32:26.912Z,102150.25
2022-10-03T12:35:07.898Z,102155.56
2022-10-03T12:37:52.726Z,102148.94
2022-10-03T12:40:27.538Z,102164.44
2022-10-03T12:43:16.304Z,102148.63
2022-10-03T12:45:53.067Z,102167.72
2022-10-03T12:48:40.069Z,102159.13
2022-10-03T12:51:21.459Z,102155.25
2022-10-03T12:54:02.253Z,102157.00
2022-10-03T12:56:43.938Z,102162.44
2022-10-03T12:59:25.071Z,102154.19
2022-10-03T13:02:24.055Z,102162.56
2022-10-03T13:05:18.149Z,102166.78
2022-10-03T13:07:56.697Z,102162.53
2022-10-03T13:10:37.245Z,102164.56
2022-10-03T13:13:25.889Z,102153.75
2022-10-03T13:16:21.857Z,102164.94
2022-10-03T13:18:56.825Z,102165.28
2022-10-03T13:21:55.975Z,102166.28
2022-10-03T13:24:33.461Z,102153.13
2022-10-03T13:27:12.364Z,102151.31
2022-10-03T13:29:45.974Z,102148.44
2022-10-03T13:32:19.549Z,102156.72
2022-10-03T13:35:37.434Z,102148.78
2022-10-03T13:38:18.503Z,102148.88
2022-10-03T13:40:55.961Z,102148.13
2022-10-03T13:43:37.558Z,102158.00
2022-10-03T13:46:14.824Z,102158.13
2022-10-03T13:48:52.464Z,102149.41
2022-10-03T13:51:29.324Z,102148.34
2022-10-03T13:54:03.805Z,102147.06
2022-10-03T13:56:56.213Z,102156.03
2022-10-03T13:59:37.424Z,102154.06
2022-10-03T14:02:29.424Z,102150.72
2022-10-03T14:05:20.087Z,102144.31
2022-10-03T14:08:04.157Z,102148.84
2022-10-03T14:10:59.220Z,102156.72
2022-10-03T14:13:37.065Z,102149.25
2022-10-03T14:16:15.029Z,102147.94
2022-10-03T14:18:52.742Z,102143.88
2022-10-03T14:21:34.968Z,102143.72
2022-10-03T14:24:14.186Z,102153.28
2022-10-03T14:26:50.779Z,102148.81
2022-10-03T14:29:27.603Z,102144.09
2022-10-03T14:32:02.257Z,102150.66
2022-10-03T14:34:46.663Z,102146.53
2022-10-03T14:37:25.566Z,102143.31
2022-10-03T14:40:06.257Z,102141.63
2022-10-03T14:43:10.778Z,102142.78
2022-10-03T14:45:44.687Z,102134.84
2022-10-03T14:48:19.221Z,102146.91
2022-10-03T14:50:54.578Z,102140.81
2022-10-03T14:53:27.203Z,102136.84
2022-10-03T14:56:01.145Z,102138.19
2022-10-03T14:58:35.466Z,102136.16
2022-10-03T15:01:13.265Z,102140.72
2022-10-03T15:03:46.523Z,102145.25
2022-10-03T15:06:36.789Z,102141.66
2022-10-03T15:09:11.690Z,102138.06
2022-10-03T15:11:49.433Z,102137.00
2022-10-03T15:14:19.806Z,102137.00
2022-10-03T15:16:54.576Z,102134.88
2022-10-03T15:19:29.268Z,102144.00
2022-10-03T15:22:13.356Z,102130.03
2022-10-03T15:24:43.255Z,102131.34
2022-10-03T15:27:22.335Z,102138.69
2022-10-03T15:29:54.584Z,102127.28
2022-10-03T15:32:28.650Z,102131.00
2022-10-03T15:35:01.917Z,102132.81
2022-10-03T15:37:37.319Z,102133.22
2022-10-03T15:40:12.390Z,102135.44
2022-10-03T15:42:50.506Z,102130.25
2022-10-03T15:45:28.811Z,102126.44
2022-10-03T15:48:02.417Z,102128.03
2022-10-03T15:50:35.526Z,102123.47
2022-10-03T15:53:34.917Z,102129.34
2022-10-03T15:56:11.655Z,102121.91
2022-10-03T15:58:48.058Z,102116.97
2022-10-03T16:01:22.625Z,102123.09
2022-10-03T16:03:54.859Z,102121.47
2022-10-03T16:06:28.592Z,102119.19
2022-10-03T16:09:03.749Z,102106.13
2022-10-03T16:11:41.430Z,102113.63
2022-10-03T16:14:22.907Z,102111.16
2022-10-03T16:16:56.679Z,102106.94
2022-10-03T16:19:34.106Z,102114.88
2022-10-03T16:22:17.732Z,102106.00
2022-10-03T16:24:59.435Z,102110.78
2022-10-03T16:27:31.506Z,102114.03
2022-10-03T16:30:19.049Z,102105.53
2022-10-03T16:32:57.084Z,102110.09
2022-10-03T16:35:39.442Z,102113.56
2022-10-03T16:38:18.498Z,102115.34
2022-10-03T16:40:58.726Z,102124.25
2022-10-03T16:43:31.072Z,102118.00
2022-10-03T16:46:05.067Z,102114.91
2022-10-03T16:48:54.008Z,102125.91
2022-10-03T16:51:25.978Z,102126.25
2022-10-03T16:53:57.029Z,102125.53
2022-10-03T16:56:33.930Z,102118.69
2022-10-03T16:59:07.730Z,102116.19
2022-10-03T17:01:43.759Z,102110.84
2022-10-03T17:04:23.579Z,102110.50
2022-10-03T17:06:56.278Z,102111.56
2022-10-03T17:09:34.660Z,102116.16
2022-10-03T17:12:07.940Z,102107.28
2022-10-03T17:14:41.859Z,102118.06
2022-10-03T17:17:26.616Z,102117.13
2022-10-03T17:20:00.931Z,102123.16
2022-10-03T17:22:35.670Z,102126.03
2022-10-03T17:25:08.857Z,102130.22
2022-10-03T17:27:41.558Z,102133.56
2022-10-03T17:30:21.685Z,102126.13
2022-10-03T17:32:59.365Z,102126.50
2022-10-03T17:35:38.876Z,102130.81
2022-10-03T17:38:47.954Z,102124.06
2022-10-03T17:41:18.620Z,102122.59
2022-10-03T17:44:00.347Z,102126.91
2022-10-03T17:46:40.114Z,102121.56
2022-10-03T17:49:19.665Z,102130.41
2022-10-03T17:51:53.214Z,102124.25
2022-10-03T17:54:26.714Z,102136.91
2022-10-03T17:57:01.238Z,102131.25
2022-10-03T17:59:39.611Z,102133.06
2022-10-03T18:02:21.602Z,102140.66
2022-10-03T18:05:07.436Z,102139.22
2022-10-03T18:07:38.239Z,102133.84
2022-10-03T18:10:17.605Z,102136.56
2022-10-03T18:12:53.673Z,102128.53
2022-10-03T18:15:42.329Z,102133.84
2022-10-03T18:18:45.482Z,102139.53
2022-10-03T18:21:25.576Z,102137.44
2022-10-03T18:24:16.306Z,102134.72
2022-10-03T18:26:49.762Z,102140.81
2022-10-03T18:29:27.471Z,102142.31
2022-10-03T18:32:00.801Z,102141.38
2022-10-03T18:34:36.005Z,102143.69
2022-10-03T18:37:38.931Z,102152.84
2022-10-03T18:40:18.405Z,102143.81
2022-10-03T18:42:49.645Z,102150.13
2022-10-03T18:45:23.084Z,102146.22
2022-10-03T18:47:56.567Z,102152.13
2022-10-03T18:50:30.487Z,102143.31
2022-10-03T18:53:05.457Z,102139.22
2022-10-03T18:55:42.056Z,102149.19
2022-10-03T18:58:22.962Z,102150.13
2022-10-03T19:00:57.418Z,102157.78
2022-10-03T19:03:33.094Z,102152.94
2022-10-03T19:06:08.115Z,102145.50
2022-10-03T19:08:43.016Z,102149.16
2022-10-03T19:11:22.811Z,102146.44
2022-10-03T19:14:01.328Z,102152.13
2022-10-03T19:16:59.966Z,102145.16
2022-10-03T19:19:41.549Z,102151.16
2022-10-03T19:22:16.995Z,102153.91
2022-10-03T19:24:58.700Z,102154.84
2022-10-03T19:27:42.998Z,102150.94
2022-10-03T19:30:18.867Z,102150.63
2022-10-03T19:32:55.846Z,102144.00
2022-10-03T19:35:26.351Z,102146.72
2022-10-03T19:38:01.598Z,102145.91
2022-10-03T19:40:42.697Z,102148.31
2022-10-03T19:43:35.449Z,102149.34
2022-10-03T19:46:34.557Z,102147.78
2022-10-03T19:49:22.177Z,102151.16
2022-10-03T19:51:51.786Z,102159.25
2022-10-03T19:54:34.841Z,102153.88
2022-10-03T19:57:05.665Z,102153.88
2022-10-03T19:59:46.143Z,102153.53
2022-10-03T20:02:15.375Z,102155.53
2022-10-03T20:04:50.130Z,102163.50
2022-10-03T20:07:26.786Z,102160.78
2022-10-03T20:09:58.600Z,102159.31
2022-10-03T20:12:29.966Z,102155.75
2022-10-03T20:15:05.702Z,102158.38
2022-10-03T20:17:35.280Z,102153.91
2022-10-03T20:20:08.654Z,102153.06
2022-10-03T20:22:38.307Z,102154.31
2022-10-03T20:25:21.469Z,102148.97
2022-10-03T20:27:54.701Z,102147.91
2022-10-03T20:30:33.276Z,102147.38
2022-10-03T20:33:03.044Z,102141.31
2022-10-03T20:35:47.875Z,102131.38
2022-10-03T20:38:26.585Z,102136.66
2022-10-03T20:41:01.582Z,102132.53
2022-10-03T20:43:41.741Z,102134.25
2022-10-03T20:46:24.147Z,102139.06
2022-10-03T20:49:20.044Z,102147.03
2022-10-03T20:51:59.280Z,102142.69
2022-10-03T20:54:35.278Z,102142.91
2022-10-03T20:57:13.754Z,102144.88
2022-10-03T20:59:48.023Z,102138.31
2022-10-03T21:02:35.958Z,102133.56
2022-10-03T21:05:07.889Z,102143.88
2022-10-03T21:07:42.101Z,102134.41
2022-10-03T21:10:21.042Z,102136.75
2022-10-03T21:12:53.037Z,102139.38
2022-10-03T21:15:30.517Z,102142.91
2022-10-03T21:18:02.336Z,102142.06
2022-10-03T21:20:36.642Z,102144.22
2022-10-03T21:23:15.103Z,102137.16
2022-10-03T21:25:45.194Z,102145.38
2022-10-03T21:28:24.916Z,102134.25
2022-10-03T21:31:20.991Z,102139.78
2022-10-03T21:34:00.975Z,102135.66
2022-10-03T21:36:49.182Z,102131.72
2022-10-03T21:39:27.242Z,102137.53
2022-10-03T21:42:08.909Z,102132.56
2022-10-03T21:44:56.011Z,102138.28
2022-10-03T21:47:38.338Z,102148.00
2022-10-03T21:50:15.776Z,102141.78
2022-10-03T21:53:04.855Z,102131.25
2022-10-03T21:55:54.937Z,102127.88
2022-10-03T21:58:46.732Z,102129.56
2022-10-03T22:01:24.908Z,102128.63
2022-10-03T22:03:59.741Z,102127.66
2022-10-03T22:06:36.512Z,102114.75
2022-10-03T22:09:14.144Z,102112.63
2022-10-03T22:11:50.002Z,102120.69
2022-10-03T22:14:30.167Z,102123.13
2022-10-03T22:17:07.991Z,102119.34
2022-10-03T22:19:41.721Z,102121.34
2022-10-03T22:22:27.649Z,102120.41
2022-10-03T22:25:18.043Z,102112.13
2022-10-03T22:27:53.906Z,102110.84
2022-10-03T22:30:23.434Z,102111.97
2022-10-03T22:33:04.709Z,102113.13
2022-10-03T22:35:52.314Z,102108.72
2022-10-03T22:38:27.579Z,102116.69
2022-10-03T22:41:00.994Z,102112.69
2022-10-03T22:43:30.784Z,102113.81
2022-10-03T22:46:00.649Z,102107.81
2022-10-03T22:48:35.220Z,102112.78
2022-10-03T22:51:09.483Z,102115.41
2022-10-03T22:53:45.433Z,102102.41
2022-10-03T22:56:42.332Z,102110.44
2022-10-03T22:59:17.302Z,102110.28
2022-10-03T23:01:48.019Z,102109.25
2022-10-03T23:04:28.527Z,102104.59
2022-10-03T23:07:19.176Z,102107.50
2022-10-03T23:09:59.961Z,102103.75
2022-10-03T23:12:33.252Z,102100.50
2022-10-03T23:15:07.818Z,102100.56
2022-10-03T23:17:57.789Z,102099.19
2022-10-03T23:20:47.082Z,102104.03
2022-10-03T23:23:20.926Z,102100.38
2022-10-03T23:26:01.978Z,102095.31
2022-10-03T23:28:40.029Z,102095.53
2022-10-03T23:31:29.868Z,102089.53
2022-10-03T23:33:59.189Z,102096.38
2022-10-03T23:36:32.051Z,102089.00
2022-10-03T23:39:02.015Z,102090.00
2022-10-03T23:41:45.431Z,102093.63
2022-10-03T23:44:49.639Z,102081.13
2022-10-03T23:47:24.317Z,102080.16
2022-10-03T23:49:54.543Z,102075.25
2022-10-03T23:52:28.417Z,102082.31
2022-10-03T23:55:03.052Z,102074.66
2022-10-03T23:57:36.777Z,102078.41
